Time;durP1;ratioP1;P1;durP2;ratioP2;P2;SDS_P1;SDS_P2;PMS_P1;PMS_P2;Temp;Humidity;BMP_temperature;BMP_pressure;BME280_temperature;BME280_humidity;BME280_pressure;Samples;Min_cycle;Max_cycle;Signal;HPM_P1;HPM_P2
2023/05/02 13:30:32;;;;;;;;;14.75;13.75;;;;;;;;5620559;22;11428;-73
2023/05/02 13:32:57;;;;;;;;;10.50;10.50;;;;;;;;6271288;22;11062;-74
2023/05/02 13:35:23;;;;;;;;;18.50;18.50;;;;;;;;6281977;22;8772;-74
2023/05/02 13:37:49;;;;;;;;;19.50;16.25;;;;;;;;6281446;22;8830;-74
2023/05/02 13:40:15;;;;;;;;;15.25;13.75;;;;;;;;6281905;22;8736;-74
2023/05/02 13:42:40;;;;;;;;;16.00;14.50;;;;;;;;6281667;22;11004;-74
2023/05/02 13:45:06;;;;;;;;;16.50;15.75;;;;;;;;6281709;22;8755;-74
2023/05/02 13:47:31;;;;;;;;;17.75;15.00;;;;;;;;6282036;22;8744;-74
2023/05/02 13:49:57;;;;;;;;;14.25;13.00;;;;;;;;6279271;22;11028;-74
2023/05/02 13:52:22;;;;;;;;;17.50;14.75;;;;;;;;6281664;22;8752;-73
2023/05/02 13:54:47;;;;;;;;;15.50;15.50;;;;;;;;6280141;22;8783;-74
2023/05/02 13:57:12;;;;;;;;;18.50;14.75;;;;;;;;6281913;22;8893;-74
2023/05/02 13:59:37;;;;;;;;;13.75;13.00;;;;;;;;6281008;22;8801;-74
2023/05/02 14:02:03;;;;;;;;;11.25;11.25;;;;;;;;6279817;22;8772;-75
2023/05/02 14:04:28;;;;;;;;;13.00;12.25;;;;;;;;6280365;22;8756;-75
2023/05/02 14:06:53;;;;;;;;;16.00;12.75;;;;;;;;6279973;22;8841;-75
2023/05/02 14:09:19;;;;;;;;;12.75;12.75;;;;;;;;6279973;22;8786;-74
2023/05/02 14:11:46;;;;;;;;;16.75;15.25;;;;;;;;6280409;22;8818;-74
2023/05/02 14:14:11;;;;;;;;;14.50;13.25;;;;;;;;6279705;22;10949;-74
2023/05/02 14:16:37;;;;;;;;;15.00;14.00;;;;;;;;6280579;22;11782;-73
2023/05/02 14:19:02;;;;;;;;;9.75;9.25;;;;;;;;6279041;22;8885;-75
2023/05/02 14:21:27;;;;;;;;;11.75;10.75;;;;;;;;6281414;22;8771;-74
2023/05/02 14:23:52;;;;;;;;;15.25;15.25;;;;;;;;6281295;22;8813;-74
2023/05/02 14:26:19;;;;;;;;;18.00;17.25;;;;;;;;6281226;22;8751;-75
2023/05/02 14:28:45;;;;;;;;;14.50;14.50;;;;;;;;6280909;22;8720;-74
2023/05/02 14:31:10;;;;;;;;;13.50;13.00;;;;;;;;6284665;22;11041;-74
2023/05/02 14:33:35;;;;;;;;;14.00;14.00;;;;;;;;6312285;22;9469;-73
2023/05/02 14:36:00;;;;;;;;;14.00;13.00;;;;;;;;6312264;22;8759;-74
2023/05/02 14:38:25;;;;;;;;;14.75;12.50;;;;;;;;6312230;22;8790;-73
2023/05/02 14:40:51;;;;;;;;;13.25;12.50;;;;;;;;6312812;22;8881;-73
2023/05/02 14:43:16;;;;;;;;;12.25;11.50;;;;;;;;6312334;22;9508;-73
2023/05/02 14:45:41;;;;;;;;;13.00;11.75;;;;;;;;6312097;22;8853;-73
2023/05/02 14:48:07;;;;;;;;;12.00;12.00;;;;;;;;6312692;22;9537;-73
2023/05/02 14:50:32;;;;;;;;;5.00;5.00;;;;;;;;6312683;22;8882;-74
2023/05/02 14:52:57;;;;;;;;;12.50;11.75;;;;;;;;6284447;22;8772;-73
2023/05/02 14:55:22;;;;;;;;;15.00;11.75;;;;;;;;6312582;22;8760;-73
2023/05/02 14:57:48;;;;;;;;;12.75;11.50;;;;;;;;6311975;22;8800;-73
2023/05/02 15:00:13;;;;;;;;;12.25;11.50;;;;;;;;6312147;22;8756;-74
2023/05/02 15:02:39;;;;;;;;;13.25;11.50;;;;;;;;6312884;22;8866;-74
2023/05/02 15:05:06;;;;;;;;;11.25;11.25;;;;;;;;6312685;22;8756;-73
2023/05/02 15:07:31;;;;;;;;;10.00;10.00;;;;;;;;6312553;22;8767;-73
2023/05/02 15:09:57;;;;;;;;;12.25;12.25;;;;;;;;6283070;22;10972;-73
2023/05/02 15:12:22;;;;;;;;;11.75;11.75;;;;;;;;6311497;22;8772;-73
2023/05/02 15:14:47;;;;;;;;;11.50;9.50;;;;;;;;6312269;22;8872;-73
2023/05/02 15:17:12;;;;;;;;;13.75;13.50;;;;;;;;6311775;22;8776;-73
2023/05/02 15:19:37;;;;;;;;;13.25;11.75;;;;;;;;6312442;22;8760;-74
2023/05/02 15:22:02;;;;;;;;;10.50;10.50;;;;;;;;6310070;22;8756;-74
2023/05/02 15:24:28;;;;;;;;;9.75;9.75;;;;;;;;6310942;22;8779;-80
2023/05/02 15:26:53;;;;;;;;;8.75;6.50;;;;;;;;6310626;22;8776;-73
2023/05/02 15:29:18;;;;;;;;;12.00;11.25;;;;;;;;6311621;22;8733;-73
2023/05/02 15:31:43;;;;;;;;;10.50;8.25;;;;;;;;6310823;22;8798;-73
2023/05/02 15:34:09;;;;;;;;;16.75;13.00;;;;;;;;6311865;22;8764;-72
2023/05/02 15:36:37;;;;;;;;;10.25;9.25;;;;;;;;6311763;22;8796;-73
2023/05/02 15:39:03;;;;;;;;;9.75;8.75;;;;;;;;6311322;22;9529;-73
2023/05/02 15:41:28;;;;;;;;;11.50;11.50;;;;;;;;6310497;22;10813;-73
2023/05/02 15:43:53;;;;;;;;;14.25;14.25;;;;;;;;6311690;22;8759;-73
2023/05/02 15:46:19;;;;;;;;;13.00;13.00;;;;;;;;6312244;22;8787;-73
2023/05/02 15:48:44;;;;;;;;;10.00;10.00;;;;;;;;6312345;22;9482;-73
2023/05/02 15:51:09;;;;;;;;;9.50;9.50;;;;;;;;6311911;22;9628;-72
2023/05/02 15:53:38;;;;;;;;;7.00;7.00;;;;;;;;6312377;22;8752;-73
2023/05/02 15:56:06;;;;;;;;;10.00;10.00;;;;;;;;6311677;22;8713;-72
2023/05/02 15:58:31;;;;;;;;;10.25;10.00;;;;;;;;6311503;22;10877;-73
2023/05/02 16:00:56;;;;;;;;;6.00;4.75;;;;;;;;6311489;22;10748;-74
2023/05/02 16:03:21;;;;;;;;;11.50;9.00;;;;;;;;6311990;22;8760;-73
2023/05/02 16:05:46;;;;;;;;;9.50;9.50;;;;;;;;6312175;22;8786;-72
2023/05/02 16:08:12;;;;;;;;;9.75;9.75;;;;;;;;6312141;22;8745;-73
2023/05/02 16:10:39;;;;;;;;;9.75;8.00;;;;;;;;6283840;22;8879;-73
2023/05/02 16:13:04;;;;;;;;;13.75;12.25;;;;;;;;6311772;22;8758;-72
2023/05/02 16:15:29;;;;;;;;;10.00;9.50;;;;;;;;6312103;22;10893;-72
2023/05/02 16:17:55;;;;;;;;;10.50;8.75;;;;;;;;6312068;22;8760;-73
2023/05/02 16:20:20;;;;;;;;;9.00;9.00;;;;;;;;6311843;22;8857;-72
2023/05/02 16:22:46;;;;;;;;;12.00;11.25;;;;;;;;6311569;22;8760;-72
2023/05/02 16:25:11;;;;;;;;;9.00;8.75;;;;;;;;6312353;22;8744;-73
2023/05/02 16:27:36;;;;;;;;;9.50;9.50;;;;;;;;6285133;22;8764;-72
2023/05/02 16:30:02;;;;;;;;;7.00;7.00;;;;;;;;6313364;22;8853;-72
2023/05/02 16:32:28;;;;;;;;;8.00;8.00;;;;;;;;6313096;22;8775;-72
2023/05/02 16:34:53;;;;;;;;;8.00;7.25;;;;;;;;6313055;22;8855;-72
2023/05/02 16:37:18;;;;;;;;;10.75;8.50;;;;;;;;6313218;22;8772;-72
2023/05/02 16:39:45;;;;;;;;;9.50;8.50;;;;;;;;6313087;22;9593;-72
2023/05/02 16:42:10;;;;;;;;;8.75;8.75;;;;;;;;6313216;22;8729;-72
2023/05/02 16:44:35;;;;;;;;;6.75;6.75;;;;;;;;6312917;22;10524;-73
2023/05/02 16:47:01;;;;;;;;;7.00;7.00;;;;;;;;6313329;22;8862;-72
2023/05/02 16:49:26;;;;;;;;;9.50;8.25;;;;;;;;6313181;22;8740;-72
2023/05/02 16:51:52;;;;;;;;;9.00;8.75;;;;;;;;6313160;22;8744;-72
2023/05/02 16:54:17;;;;;;;;;7.50;7.50;;;;;;;;6312371;22;8831;-72
2023/05/02 16:56:42;;;;;;;;;6.25;6.25;;;;;;;;6312646;22;10569;-72
2023/05/02 16:59:08;;;;;;;;;12.25;11.50;;;;;;;;6312867;22;8806;-72
2023/05/02 17:01:34;;;;;;;;;9.75;8.25;;;;;;;;6313113;22;8783;-73
2023/05/02 17:03:59;;;;;;;;;5.25;5.25;;;;;;;;6313119;22;8867;-72
2023/05/02 17:06:25;;;;;;;;;8.50;8.00;;;;;;;;6313007;22;8752;-73
2023/05/02 17:08:50;;;;;;;;;7.50;7.50;;;;;;;;6285041;22;8776;-72
2023/05/02 17:11:16;;;;;;;;;9.50;8.50;;;;;;;;6313253;22;8782;-72
2023/05/02 17:13:42;;;;;;;;;7.25;7.25;;;;;;;;6313269;22;8744;-72
2023/05/02 17:16:07;;;;;;;;;9.50;9.00;;;;;;;;6312986;22;8855;-73
2023/05/02 17:18:33;;;;;;;;;7.00;7.00;;;;;;;;6313194;22;10572;-72
2023/05/02 17:20:58;;;;;;;;;10.00;9.75;;;;;;;;6284352;22;8791;-73
2023/05/02 17:23:23;;;;;;;;;10.50;9.50;;;;;;;;6312799;22;8790;-72
2023/05/02 17:25:49;;;;;;;;;11.50;9.50;;;;;;;;6312832;22;8816;-73
2023/05/02 17:28:15;;;;;;;;;11.00;11.00;;;;;;;;6312798;22;8728;-73
2023/05/02 17:30:41;;;;;;;;;11.75;11.75;;;;;;;;6312472;22;10859;-73
2023/05/02 17:33:06;;;;;;;;;6.75;6.75;;;;;;;;6284274;22;8790;-73
2023/05/02 17:35:31;;;;;;;;;9.25;8.25;;;;;;;;6312553;22;8793;-73
2023/05/02 17:37:56;;;;;;;;;11.50;10.25;;;;;;;;6311981;22;8802;-73
2023/05/02 17:40:22;;;;;;;;;11.25;9.50;;;;;;;;6313089;22;8758;-72
2023/05/02 17:42:47;;;;;;;;;12.00;12.00;;;;;;;;6312846;22;8751;-73
2023/05/02 17:45:12;;;;;;;;;11.00;9.25;;;;;;;;6312138;22;8742;-72
2023/05/02 17:47:38;;;;;;;;;10.75;10.75;;;;;;;;6285215;22;8786;-72
2023/05/02 17:50:03;;;;;;;;;8.75;8.75;;;;;;;;6312793;22;8750;-72
2023/05/02 17:52:33;;;;;;;;;11.25;10.50;;;;;;;;6312592;22;8906;-72
2023/05/02 17:54:58;;;;;;;;;14.00;14.00;;;;;;;;6312235;22;8739;-72
2023/05/02 17:57:23;;;;;;;;;11.00;10.75;;;;;;;;6312744;22;11008;-72
2023/05/02 17:59:51;;;;;;;;;16.50;11.00;;;;;;;;6312562;22;8801;-73
2023/05/02 18:02:17;;;;;;;;;10.75;9.00;;;;;;;;6312565;22;8790;-73
2023/05/02 18:04:42;;;;;;;;;11.75;10.50;;;;;;;;6284307;22;10870;-72
2023/05/02 18:07:07;;;;;;;;;7.25;7.25;;;;;;;;6312874;22;8766;-72
2023/05/02 18:09:33;;;;;;;;;9.50;9.50;;;;;;;;6312931;22;9507;-72
2023/05/02 18:11:59;;;;;;;;;13.75;11.25;;;;;;;;6312896;22;8813;-72
2023/05/02 18:14:25;;;;;;;;;13.50;12.50;;;;;;;;6312576;22;8731;-72
2023/05/02 18:16:50;;;;;;;;;10.75;10.75;;;;;;;;6312404;22;12267;-73
2023/05/02 18:19:15;;;;;;;;;13.50;12.25;;;;;;;;6312373;22;9499;-72
2023/05/02 18:21:40;;;;;;;;;13.25;13.25;;;;;;;;6312358;22;10029;-73
2023/05/02 18:24:06;;;;;;;;;15.50;12.75;;;;;;;;6284723;22;8793;-72
2023/05/02 18:26:31;;;;;;;;;14.00;12.50;;;;;;;;6312004;22;8877;-73
2023/05/02 18:28:57;;;;;;;;;11.50;9.25;;;;;;;;6311330;22;8778;-72
2023/05/02 18:31:22;;;;;;;;;15.75;15.25;;;;;;;;6312166;22;8813;-72
2023/05/02 18:33:48;;;;;;;;;13.25;13.25;;;;;;;;6311944;22;8763;-72
2023/05/02 18:36:17;;;;;;;;;17.25;15.25;;;;;;;;6312495;22;9488;-72
2023/05/02 18:38:43;;;;;;;;;16.75;16.00;;;;;;;;6312557;22;8768;-73
2023/05/02 18:41:08;;;;;;;;;9.00;8.00;;;;;;;;6284927;22;11052;-72
2023/05/02 18:43:33;;;;;;;;;16.00;14.75;;;;;;;;6312439;22;8775;-72
2023/05/02 18:45:58;;;;;;;;;5.25;2.75;;;;;;;;6311831;22;8740;-73
2023/05/02 18:48:24;;;;;;;;;12.75;12.75;;;;;;;;6311476;22;8768;-73
2023/05/02 18:50:50;;;;;;;;;17.25;14.50;;;;;;;;6284830;22;8748;-73
2023/05/02 18:53:15;;;;;;;;;16.00;14.75;;;;;;;;6312463;22;8744;-72
2023/05/02 18:55:40;;;;;;;;;10.50;10.25;;;;;;;;6312378;22;8764;-72
2023/05/02 18:58:05;;;;;;;;;11.00;10.50;;;;;;;;6312337;22;8858;-72
2023/05/02 19:00:31;;;;;;;;;10.25;9.25;;;;;;;;6284025;22;8811;-73
2023/05/02 19:02:56;;;;;;;;;8.75;6.00;;;;;;;;6311863;22;8756;-73
2023/05/02 19:05:21;;;;;;;;;11.00;11.00;;;;;;;;6311714;22;8837;-72
2023/05/02 19:07:47;;;;;;;;;9.75;9.25;;;;;;;;6311655;22;8764;-72
2023/05/02 19:10:12;;;;;;;;;13.00;12.50;;;;;;;;6312357;22;8804;-73
2023/05/02 19:12:37;;;;;;;;;10.00;10.00;;;;;;;;6311854;22;8717;-74
2023/05/02 19:15:03;;;;;;;;;11.00;9.50;;;;;;;;6311563;22;8783;-73
2023/05/02 19:17:28;;;;;;;;;11.75;10.50;;;;;;;;6309469;22;8752;-73
2023/05/02 19:19:54;;;;;;;;;8.25;8.25;;;;;;;;6283292;22;11126;-73
2023/05/02 19:22:22;;;;;;;;;12.00;12.00;;;;;;;;6311423;22;8757;-73
2023/05/02 19:24:47;;;;;;;;;8.00;8.00;;;;;;;;6310788;22;8725;-73
2023/05/02 19:27:12;;;;;;;;;12.50;10.25;;;;;;;;6311306;22;11042;-73
2023/05/02 19:29:37;;;;;;;;;10.75;10.50;;;;;;;;6310891;22;8752;-73
2023/05/02 19:32:02;;;;;;;;;10.75;10.75;;;;;;;;6311133;22;8752;-73
2023/05/02 19:34:28;;;;;;;;;13.00;13.00;;;;;;;;6312196;22;8764;-73
2023/05/02 19:36:53;;;;;;;;;12.00;11.25;;;;;;;;6312369;22;8780;-73
2023/05/02 19:39:18;;;;;;;;;10.50;8.25;;;;;;;;6312462;22;8736;-73
2023/05/02 19:41:44;;;;;;;;;10.25;9.50;;;;;;;;6284320;22;8780;-73
2023/05/02 19:44:09;;;;;;;;;13.00;10.75;;;;;;;;6284264;22;8861;-73
2023/05/02 19:46:34;;;;;;;;;11.25;8.75;;;;;;;;6284297;22;9462;-73
2023/05/02 19:48:59;;;;;;;;;12.50;10.25;;;;;;;;6312082;22;8822;-72
2023/05/02 19:51:26;;;;;;;;;8.00;8.00;;;;;;;;6312633;22;8859;-73
2023/05/02 19:53:52;;;;;;;;;11.25;11.25;;;;;;;;6312081;22;8724;-73
2023/05/02 19:56:18;;;;;;;;;13.00;6.75;;;;;;;;6311987;22;11137;-73
2023/05/02 19:58:44;;;;;;;;;7.75;7.75;;;;;;;;6312275;22;8794;-73
2023/05/02 20:01:09;;;;;;;;;7.00;6.00;;;;;;;;6313201;22;10896;-73
2023/05/02 20:03:35;;;;;;;;;8.50;8.50;;;;;;;;6313498;22;8767;-73
2023/05/02 20:06:00;;;;;;;;;7.25;7.25;;;;;;;;6313206;22;8791;-73
2023/05/02 20:08:26;;;;;;;;;5.25;3.75;;;;;;;;6313608;22;8803;-73
2023/05/02 20:10:52;;;;;;;;;6.00;6.00;;;;;;;;6313337;22;8728;-73
2023/05/02 20:13:17;;;;;;;;;9.50;8.00;;;;;;;;6312488;22;11839;-73
2023/05/02 20:15:42;;;;;;;;;11.00;9.50;;;;;;;;6284501;22;10025;-72
2023/05/02 20:18:07;;;;;;;;;8.00;8.00;;;;;;;;6312900;22;8776;-73
2023/05/02 20:20:32;;;;;;;;;12.50;12.50;;;;;;;;6313326;22;8764;-73
2023/05/02 20:22:58;;;;;;;;;12.75;10.50;;;;;;;;6285186;22;9535;-74
2023/05/02 20:25:23;;;;;;;;;13.50;11.50;;;;;;;;6313432;22;8799;-73
2023/05/02 20:27:49;;;;;;;;;12.00;12.00;;;;;;;;6313170;22;9617;-73
2023/05/02 20:30:14;;;;;;;;;15.25;12.50;;;;;;;;6284989;22;8752;-72
2023/05/02 20:32:39;;;;;;;;;15.00;11.50;;;;;;;;6312185;22;8776;-72
2023/05/02 20:35:05;;;;;;;;;15.00;14.50;;;;;;;;6313432;22;8772;-72
2023/05/02 20:37:31;;;;;;;;;15.25;14.75;;;;;;;;6285718;22;9576;-72
2023/05/02 20:39:56;;;;;;;;;18.25;16.00;;;;;;;;6311808;22;12152;-73
2023/05/02 20:42:23;;;;;;;;;16.25;16.25;;;;;;;;6312932;22;9476;-73
2023/05/02 20:44:52;;;;;;;;;18.50;18.50;;;;;;;;6284994;22;8770;-73
2023/05/02 20:47:17;;;;;;;;;17.50;16.00;;;;;;;;6312705;22;11369;-73
2023/05/02 20:49:42;;;;;;;;;13.75;13.75;;;;;;;;6313559;22;11380;-72
2023/05/02 20:52:07;;;;;;;;;15.25;14.75;;;;;;;;6313263;22;8756;-72
2023/05/02 20:54:33;;;;;;;;;22.00;19.00;;;;;;;;6312910;22;8785;-73
2023/05/02 20:56:58;;;;;;;;;20.00;18.50;;;;;;;;6312900;22;9503;-72
2023/05/02 20:59:24;;;;;;;;;19.00;19.00;;;;;;;;6313100;22;8848;-73
2023/05/02 21:01:49;;;;;;;;;17.75;17.00;;;;;;;;6312244;22;8737;-73
2023/05/02 21:04:15;;;;;;;;;18.00;17.00;;;;;;;;6312907;22;11419;-71
2023/05/02 21:06:40;;;;;;;;;22.00;20.75;;;;;;;;6312876;22;8756;-73
2023/05/02 21:09:08;;;;;;;;;19.75;17.00;;;;;;;;6312519;22;8732;-72
2023/05/02 21:11:33;;;;;;;;;21.25;20.75;;;;;;;;6312776;22;8759;-73
2023/05/02 21:13:58;;;;;;;;;22.25;21.25;;;;;;;;6312496;22;12140;-73
2023/05/02 21:16:23;;;;;;;;;25.00;23.50;;;;;;;;6284470;22;8768;-74
2023/05/02 21:18:48;;;;;;;;;21.00;20.25;;;;;;;;6312181;22;8848;-72
2023/05/02 21:21:13;;;;;;;;;19.25;16.50;;;;;;;;6312723;22;8800;-74
2023/05/02 21:23:39;;;;;;;;;18.75;18.75;;;;;;;;6312876;22;8748;-72
2023/05/02 21:26:04;;;;;;;;;25.50;21.00;;;;;;;;6285225;22;8780;-72
2023/05/02 21:28:29;;;;;;;;;23.25;22.50;;;;;;;;6284923;22;8854;-73
2023/05/02 21:30:54;;;;;;;;;20.50;20.50;;;;;;;;6308864;22;8775;-72
2023/05/02 21:33:20;;;;;;;;;22.00;20.75;;;;;;;;6310940;22;8798;-72
2023/05/02 21:35:45;;;;;;;;;22.25;20.75;;;;;;;;6310329;22;9183;-73
2023/05/02 21:38:11;;;;;;;;;19.25;16.25;;;;;;;;6311631;22;8806;-72
2023/05/02 21:40:37;;;;;;;;;25.25;23.25;;;;;;;;6310801;22;8752;-72
2023/05/02 21:43:02;;;;;;;;;21.50;20.50;;;;;;;;6311093;22;8721;-72
2023/05/02 21:45:28;;;;;;;;;23.50;21.25;;;;;;;;6310517;22;11395;-72
2023/05/02 21:47:53;;;;;;;;;21.75;20.25;;;;;;;;6311346;22;8763;-73
2023/05/02 21:50:19;;;;;;;;;24.25;24.25;;;;;;;;6310904;22;11415;-73
2023/05/02 21:52:44;;;;;;;;;30.50;26.75;;;;;;;;6311450;22;8862;-73
2023/05/02 21:55:10;;;;;;;;;22.50;20.50;;;;;;;;6311230;22;8752;-72
2023/05/02 21:57:35;;;;;;;;;24.75;22.00;;;;;;;;6310818;22;8776;-71
2023/05/02 22:00:00;;;;;;;;;21.50;21.50;;;;;;;;6282618;22;8776;-71
2023/05/02 22:02:26;;;;;;;;;29.25;26.25;;;;;;;;6311485;22;8772;-71
2023/05/02 22:04:51;;;;;;;;;25.25;23.75;;;;;;;;6310932;22;8732;-71
2023/05/02 22:07:16;;;;;;;;;28.75;23.25;;;;;;;;6257517;22;11410;-73
2023/05/02 22:09:41;;;;;;;;;22.25;22.25;;;;;;;;6283819;22;8886;-72
2023/05/02 22:12:07;;;;;;;;;17.25;16.25;;;;;;;;6283255;22;8834;-73
2023/05/02 22:14:32;;;;;;;;;28.50;24.50;;;;;;;;6309932;22;8756;-72
2023/05/02 22:17:00;;;;;;;;;29.75;25.75;;;;;;;;6280830;22;8792;-70
2023/05/02 22:19:25;;;;;;;;;21.50;20.50;;;;;;;;6311081;22;8835;-73
2023/05/02 22:21:50;;;;;;;;;25.75;24.25;;;;;;;;6281018;22;11612;-73
2023/05/02 22:24:16;;;;;;;;;29.50;27.25;;;;;;;;6282752;22;8845;-73
2023/05/02 22:26:41;;;;;;;;;23.75;22.25;;;;;;;;6310910;22;8784;-73
2023/05/02 22:29:06;;;;;;;;;24.75;22.25;;;;;;;;6310625;22;8764;-73
2023/05/02 22:31:32;;;;;;;;;26.50;26.00;;;;;;;;6282431;22;8795;-73
2023/05/02 22:33:57;;;;;;;;;31.50;28.75;;;;;;;;6311153;22;8760;-73
2023/05/02 22:36:22;;;;;;;;;28.75;27.00;;;;;;;;6310859;22;9626;-73
2023/05/02 22:38:48;;;;;;;;;27.25;26.50;;;;;;;;6310626;22;8772;-73
2023/05/02 22:41:13;;;;;;;;;30.50;27.00;;;;;;;;6283056;22;8935;-71
2023/05/02 22:43:38;;;;;;;;;31.75;27.25;;;;;;;;6310777;22;8744;-73
2023/05/02 22:46:03;;;;;;;;;25.50;24.25;;;;;;;;6282316;22;8752;-74
2023/05/02 22:48:29;;;;;;;;;32.75;30.25;;;;;;;;6310328;22;8770;-73
2023/05/02 22:50:55;;;;;;;;;29.25;26.50;;;;;;;;6310845;22;8779;-72
2023/05/02 22:53:20;;;;;;;;;29.25;28.25;;;;;;;;6282528;22;8760;-73
2023/05/02 22:55:45;;;;;;;;;34.25;26.75;;;;;;;;6310778;22;8756;-72
2023/05/02 22:58:11;;;;;;;;;26.50;26.50;;;;;;;;6310514;22;8780;-73
2023/05/02 23:00:36;;;;;;;;;28.25;28.25;;;;;;;;6310981;22;8764;-73
2023/05/02 23:03:01;;;;;;;;;28.00;26.75;;;;;;;;6311039;22;8752;-73
2023/05/02 23:05:28;;;;;;;;;12.25;11.75;;;;;;;;6310441;22;8837;-73
2023/05/02 23:07:54;;;;;;;;;35.00;30.75;;;;;;;;6310987;22;8760;-72
2023/05/02 23:10:19;;;;;;;;;29.75;23.00;;;;;;;;6310218;22;11402;-73
2023/05/02 23:12:44;;;;;;;;;31.75;30.00;;;;;;;;6310787;22;11411;-73
2023/05/02 23:15:10;;;;;;;;;27.25;25.75;;;;;;;;6310788;22;8764;-73
2023/05/02 23:17:35;;;;;;;;;33.50;31.00;;;;;;;;6310152;22;8776;-73
2023/05/02 23:20:01;;;;;;;;;35.50;30.50;;;;;;;;6310496;22;8752;-73
2023/05/02 23:22:26;;;;;;;;;35.00;31.00;;;;;;;;6310454;22;8768;-73
2023/05/02 23:24:51;;;;;;;;;29.00;25.75;;;;;;;;6310674;22;8779;-72
2023/05/02 23:27:16;;;;;;;;;28.25;25.75;;;;;;;;6310967;22;8803;-72
2023/05/02 23:29:41;;;;;;;;;31.25;30.00;;;;;;;;6310405;22;8776;-73
2023/05/02 23:32:07;;;;;;;;;36.25;34.00;;;;;;;;6309478;22;9545;-73
2023/05/02 23:34:33;;;;;;;;;30.75;27.25;;;;;;;;6310606;22;8764;-73
2023/05/02 23:36:58;;;;;;;;;27.25;25.75;;;;;;;;6309881;22;8764;-73
2023/05/02 23:39:24;;;;;;;;;25.50;24.75;;;;;;;;6311251;22;8764;-73
2023/05/02 23:41:50;;;;;;;;;25.50;24.00;;;;;;;;6310591;22;8736;-72
2023/05/02 23:44:15;;;;;;;;;34.50;31.25;;;;;;;;6310713;22;11430;-73
2023/05/02 23:46:40;;;;;;;;;28.50;25.50;;;;;;;;6310982;22;8740;-73
2023/05/02 23:49:05;;;;;;;;;32.00;26.00;;;;;;;;6311906;22;8857;-72
2023/05/02 23:51:31;;;;;;;;;33.50;27.00;;;;;;;;6311181;22;8744;-72
2023/05/02 23:53:56;;;;;;;;;31.00;27.00;;;;;;;;6282541;22;8741;-72
2023/05/02 23:56:21;;;;;;;;;24.75;22.50;;;;;;;;6310496;22;8818;-73
2023/05/02 23:58:47;;;;;;;;;33.00;31.75;;;;;;;;6310598;22;8861;-73
